createdAt,value
2022-08-12T00:00:19.579Z,100159.31
2022-08-12T00:06:01.794Z,100150.06
2022-08-12T00:11:21.088Z,100141.69
2022-08-12T00:16:41.836Z,100135.88
2022-08-12T00:22:02.654Z,100133.41
2022-08-12T00:27:27.406Z,100133.53
2022-08-12T00:33:05.085Z,100137.94
2022-08-12T00:38:25.387Z,100132.13
2022-08-12T00:43:28.158Z,100136.50
2022-08-12T00:48:31.774Z,100133.25
2022-08-12T00:53:34.966Z,100132.53
2022-08-12T00:58:46.226Z,100131.94
2022-08-12T01:04:08.694Z,100132.88
2022-08-12T01:09:29.112Z,100139.88
2022-08-12T01:14:31.949Z,100132.44
2022-08-12T01:19:34.064Z,100120.69
2022-08-12T01:24:56.901Z,100123.44
2022-08-12T01:30:00.621Z,100129.56
2022-08-12T01:35:15.322Z,100127.16
2022-08-12T01:40:34.880Z,100121.31
2022-08-12T01:45:46.477Z,100120.56
2022-08-12T01:50:51.059Z,100116.47
2022-08-12T01:55:54.393Z,100118.34
2022-08-12T02:01:01.411Z,100119.22
2022-08-12T02:06:29.377Z,100115.06
2022-08-12T02:11:40.052Z,100109.28
2022-08-12T02:16:41.640Z,100110.28
2022-08-12T02:22:07.596Z,100107.88
2022-08-12T02:27:12.768Z,100103.69
2022-08-12T02:32:15.197Z,100089.31
2022-08-12T02:37:18.515Z,100085.13
2022-08-12T02:42:23.797Z,100075.03
2022-08-12T02:48:00.385Z,100082.69
2022-08-12T02:52:53.295Z,100080.22
2022-08-12T02:57:55.713Z,100090.53
2022-08-12T03:03:04.697Z,100082.72
2022-08-12T03:08:12.149Z,100096.56
2022-08-12T03:13:26.489Z,100101.72
2022-08-12T03:18:32.818Z,100101.72
2022-08-12T03:23:40.240Z,100091.59
2022-08-12T03:28:51.909Z,100103.47
2022-08-12T03:34:03.112Z,100098.47
2022-08-12T03:39:17.258Z,100100.16
2022-08-12T03:44:57.773Z,100101.88
2022-08-12T03:50:18.344Z,100104.34
2022-08-12T03:55:38.635Z,100101.81
2022-08-12T04:00:40.801Z,100111.75
2022-08-12T04:05:55.592Z,100112.31
2022-08-12T04:11:17.647Z,100112.16
2022-08-12T04:16:20.812Z,100110.59
2022-08-12T04:21:22.513Z,100113.09
2022-08-12T04:26:24.193Z,100113.53
2022-08-12T04:31:31.866Z,100119.66
2022-08-12T04:36:35.125Z,100121.19
2022-08-12T04:41:38.658Z,100132.28
2022-08-12T04:46:59.215Z,100138.13
2022-08-12T04:52:00.979Z,100132.94
2022-08-12T04:57:04.182Z,100135.22
2022-08-12T05:02:09.557Z,100138.81
2022-08-12T05:07:19.164Z,100137.03
2022-08-12T05:12:21.276Z,100139.84
2022-08-12T05:17:27.266Z,100135.00
2022-08-12T05:22:30.039Z,100137.16
2022-08-12T05:27:31.765Z,100135.94
2022-08-12T05:32:33.964Z,100141.25
2022-08-12T05:37:35.700Z,100133.47
2022-08-12T05:42:37.810Z,100142.69
2022-08-12T05:47:53.139Z,100149.22
2022-08-12T05:52:55.819Z,100154.22
2022-08-12T05:57:58.202Z,100155.63
2022-08-12T06:03:01.534Z,100161.63
2022-08-12T06:08:06.463Z,100156.09
2022-08-12T06:13:08.113Z,100151.50
2022-08-12T06:18:14.096Z,100156.75
2022-08-12T06:23:18.065Z,100152.75
2022-08-12T06:28:21.221Z,100153.69
2022-08-12T06:33:55.319Z,100155.78
2022-08-12T06:38:47.759Z,100152.63
2022-08-12T06:44:05.639Z,100144.94
2022-08-12T06:49:13.265Z,100136.56
2022-08-12T06:54:15.036Z,100132.44
2022-08-12T06:59:35.622Z,100130.28
2022-08-12T07:04:39.149Z,100134.66
2022-08-12T07:10:01.131Z,100146.03
2022-08-12T07:15:05.062Z,100140.06
2022-08-12T07:20:29.505Z,100137.81
2022-08-12T07:25:37.577Z,100143.34
2022-08-12T07:30:45.021Z,100142.84
2022-08-12T07:35:48.029Z,100143.13
2022-08-12T07:40:52.844Z,100141.00
2022-08-12T07:45:55.326Z,100140.63
2022-08-12T07:50:57.150Z,100146.00
2022-08-12T07:55:59.020Z,100142.38
2022-08-12T08:01:02.097Z,100147.66
2022-08-12T08:06:05.404Z,100159.97
2022-08-12T08:11:25.365Z,100159.47
2022-08-12T08:16:27.110Z,100150.41
2022-08-12T08:21:29.478Z,100146.25
2022-08-12T08:26:32.592Z,100142.78
2022-08-12T08:31:45.471Z,100143.00
2022-08-12T08:36:49.572Z,100129.53
2022-08-12T08:42:17.009Z,100134.03
2022-08-12T08:47:22.897Z,100116.78
2022-08-12T08:52:45.500Z,100137.69
2022-08-12T08:57:50.193Z,100120.78
2022-08-12T09:02:58.583Z,100129.94
2022-08-12T09:08:13.221Z,100124.88
2022-08-12T09:13:29.294Z,100116.44
2022-08-12T09:24:11.413Z,100115.09
2022-08-12T09:29:16.624Z,100104.41
2022-08-12T09:34:26.815Z,100095.13
2022-08-12T09:40:01.798Z,100106.47
2022-08-12T09:45:19.397Z,100090.06
2022-08-12T09:50:26.280Z,100079.44
2022-08-12T09:56:05.331Z,100068.19
2022-08-12T10:00:53.091Z,100069.00
2022-08-12T10:06:27.356Z,100059.69
2022-08-12T10:12:07.722Z,100056.06
2022-08-12T10:16:58.107Z,100053.56
2022-08-12T10:22:01.627Z,100042.75
2022-08-12T10:27:23.231Z,100036.63
2022-08-12T10:32:44.243Z,100033.44
2022-08-12T10:38:34.468Z,100019.72
2022-08-12T10:43:27.195Z,100015.97
2022-08-12T10:48:34.213Z,100003.50
2022-08-12T10:53:45.883Z,100007.00
2022-08-12T10:58:48.460Z,100000.28
2022-08-12T11:04:23.171Z,99991.00
2022-08-12T11:09:12.353Z,99994.69
2022-08-12T11:14:49.311Z,99992.88
2022-08-12T11:19:43.669Z,99993.28
2022-08-12T11:24:51.547Z,99980.75
2022-08-12T11:30:02.597Z,99985.94
2022-08-12T11:35:11.595Z,99971.47
2022-08-12T11:40:13.727Z,99979.03
2022-08-12T11:45:16.498Z,99967.34
2022-08-12T11:50:20.488Z,99964.19
2022-08-12T11:55:23.299Z,99970.03
2022-08-12T12:05:47.335Z,99950.31
2022-08-12T12:10:50.428Z,99959.28
2022-08-12T12:15:53.178Z,99948.94
2022-08-12T12:21:00.233Z,99947.25
2022-08-12T12:26:07.052Z,99947.44
2022-08-12T12:31:14.777Z,99944.00
2022-08-12T12:36:31.804Z,99931.22
2022-08-12T12:42:42.726Z,99930.69
2022-08-12T12:46:57.001Z,99914.31
2022-08-12T12:52:18.850Z,99925.97
2022-08-12T12:57:21.537Z,99919.19
2022-08-12T13:02:40.294Z,99906.28
2022-08-12T13:07:54.081Z,99908.28
2022-08-12T13:12:57.469Z,99905.16
2022-08-12T13:18:05.157Z,99900.31
2022-08-12T13:23:36.814Z,99897.72
2022-08-12T13:28:31.739Z,99900.00
2022-08-12T13:34:33.986Z,99899.38
2022-08-12T13:38:57.497Z,99894.56
2022-08-12T13:44:00.643Z,99887.03
2022-08-12T13:49:06.463Z,99884.63
2022-08-12T13:54:13.855Z,99874.22
2022-08-12T13:59:16.112Z,99877.50
2022-08-12T14:04:18.176Z,99883.13
2022-08-12T14:09:20.157Z,99880.78
2022-08-12T14:14:21.809Z,99885.19
2022-08-12T14:19:31.679Z,99892.56
2022-08-12T14:24:40.053Z,99891.19
2022-08-12T14:30:04.781Z,99879.94
2022-08-12T14:35:09.262Z,99872.47
2022-08-12T14:40:18.096Z,99872.19
2022-08-12T14:45:22.758Z,99862.69
2022-08-12T14:50:40.907Z,99859.16
2022-08-12T15:01:29.657Z,99849.59
2022-08-12T15:06:44.580Z,99844.16
2022-08-12T15:12:03.442Z,99838.19
2022-08-12T15:17:07.109Z,99833.81
2022-08-12T15:22:37.443Z,99830.31
2022-08-12T15:28:03.765Z,99827.38
2022-08-12T15:32:53.563Z,99815.91
2022-08-12T15:38:09.179Z,99819.44
2022-08-12T15:43:51.704Z,99813.59
2022-08-12T15:48:37.534Z,99800.75
2022-08-12T15:53:57.533Z,99809.09
2022-08-12T15:58:59.721Z,99802.22
2022-08-12T16:04:01.521Z,99797.34
2022-08-12T16:09:03.271Z,99791.78
2022-08-12T16:14:09.639Z,99796.31
2022-08-12T16:20:02.286Z,99804.47
2022-08-12T16:24:39.035Z,99806.50
2022-08-12T16:29:52.838Z,99799.88
2022-08-12T16:34:56.539Z,99797.25
2022-08-12T16:40:05.943Z,99801.41
2022-08-12T16:45:10.577Z,99798.13
2022-08-12T16:50:15.684Z,99793.16
2022-08-12T16:55:18.658Z,99792.69
2022-08-12T17:00:20.589Z,99789.38
2022-08-12T17:05:31.299Z,99780.56
2022-08-12T17:10:35.940Z,99790.00
2022-08-12T17:15:57.612Z,99787.66
2022-08-12T17:21:04.332Z,99788.03
2022-08-12T17:26:07.290Z,99790.88
2022-08-12T17:31:11.526Z,99793.81
2022-08-12T17:36:13.224Z,99796.00
2022-08-12T17:41:22.405Z,99799.44
2022-08-12T17:46:32.234Z,99800.88
2022-08-12T17:51:50.114Z,99800.78
2022-08-12T17:56:53.752Z,99806.03
2022-08-12T18:02:01.718Z,99816.44
2022-08-12T18:07:08.431Z,99819.03
2022-08-12T18:12:34.452Z,99818.09
2022-08-12T18:17:40.985Z,99818.09
2022-08-12T18:22:43.136Z,99818.88
2022-08-12T18:27:47.051Z,99819.59
2022-08-12T18:32:58.197Z,99821.97
2022-08-12T18:38:04.954Z,99836.47
2022-08-12T18:43:15.265Z,99830.34
2022-08-12T18:48:19.299Z,99841.22
2022-08-12T18:54:04.841Z,99845.25
2022-08-12T18:58:59.705Z,99844.03
2022-08-12T19:04:09.319Z,99845.50
2022-08-12T19:09:14.687Z,99852.09
2022-08-12T19:14:27.474Z,99847.38
2022-08-12T19:19:37.359Z,99843.50
2022-08-12T19:25:03.024Z,99841.22
2022-08-12T19:30:09.226Z,99844.16
2022-08-12T19:40:37.365Z,99833.81
2022-08-12T19:45:48.489Z,99835.00
2022-08-12T19:50:56.735Z,99832.69
2022-08-12T19:55:58.948Z,99829.38
2022-08-12T20:01:00.658Z,99825.22
2022-08-12T20:06:11.116Z,99810.84
2022-08-12T20:12:11.566Z,99814.34
2022-08-12T20:16:57.398Z,99814.47
2022-08-12T20:22:01.950Z,99814.53
2022-08-12T20:27:29.320Z,99808.72
2022-08-12T20:32:47.958Z,99803.75
2022-08-12T20:38:06.457Z,99793.59
2022-08-12T20:43:14.963Z,99800.59
2022-08-12T20:48:25.163Z,99794.78
2022-08-12T20:53:54.165Z,99789.91
2022-08-12T20:58:53.065Z,99798.53
2022-08-12T21:04:13.346Z,99796.97
2022-08-12T21:09:17.491Z,99793.78
2022-08-12T21:14:39.491Z,99800.72
2022-08-12T21:19:52.044Z,99807.66
2022-08-12T21:24:55.915Z,99802.75
2022-08-12T21:29:59.317Z,99805.50
2022-08-12T21:35:01.037Z,99815.06
2022-08-12T21:40:13.403Z,99820.44
2022-08-12T21:45:47.215Z,99820.78
2022-08-12T21:50:39.640Z,99811.69
2022-08-12T21:55:45.509Z,99814.38
2022-08-12T22:00:48.005Z,99817.88
2022-08-12T22:06:07.952Z,99816.44
2022-08-12T22:11:21.509Z,99821.69
2022-08-12T22:16:23.287Z,99816.72
2022-08-12T22:21:48.339Z,99820.44
2022-08-12T22:26:54.311Z,99819.69
2022-08-12T22:31:57.925Z,99815.75
2022-08-12T22:36:59.674Z,99820.09
2022-08-12T22:42:20.245Z,99815.91
2022-08-12T22:47:53.376Z,99816.13
2022-08-12T22:53:17.487Z,99829.81
2022-08-12T22:58:19.165Z,99826.56
2022-08-12T23:03:48.314Z,99812.28
2022-08-12T23:08:54.534Z,99812.56
2022-08-12T23:14:01.691Z,99804.97
2022-08-12T23:19:10.980Z,99803.38
2022-08-12T23:24:22.094Z,99804.44
2022-08-12T23:29:29.714Z,99802.75
2022-08-12T23:34:37.062Z,99791.84
2022-08-12T23:40:06.616Z,99788.69
2022-08-12T23:45:03.604Z,99793.94
2022-08-12T23:50:22.668Z,99797.50
2022-08-12T23:55:29.084Z,99782.22
